Time;durP1;ratioP1;P1;durP2;ratioP2;P2;SDS_P1;SDS_P2;PMS_P1;PMS_P2;Temp;Humidity;BMP_temperature;BMP_pressure;BME280_temperature;BME280_humidity;BME280_pressure;Samples;Min_cycle;Max_cycle;Signal;HPM_P1;HPM_P2
2022/10/04 00:00:29;;;;;;;14.48;9.15;;;12.40;99.90;;;;;;5052335;28;20048;-61
2022/10/04 00:03:07;;;;;;;16.30;9.13;;;12.40;99.90;;;;;;5051785;28;20045;-61
2022/10/04 00:05:33;;;;;;;17.67;9.23;;;12.40;99.90;;;;;;5051710;28;20116;-61
2022/10/04 00:08:10;;;;;;;15.07;9.70;;;12.40;99.90;;;;;;5050991;28;20530;-61
2022/10/04 00:10:36;;;;;;;14.75;9.50;;;12.40;99.90;;;;;;5053149;28;20132;-61
2022/10/04 00:13:06;;;;;;;18.52;10.35;;;12.40;99.90;;;;;;5052778;28;20120;-61
2022/10/04 00:15:36;;;;;;;18.50;10.43;;;12.40;99.90;;;;;;5050737;28;20273;-61
2022/10/04 00:18:10;;;;;;;13.55;8.27;;;12.40;99.90;;;;;;5051771;28;20040;-61
2022/10/04 00:20:54;;;;;;;15.93;9.77;;;12.40;99.90;;;;;;5052960;28;20048;-61
2022/10/04 00:23:22;;;;;;;18.77;9.65;;;12.40;99.90;;;;;;5052273;28;20396;-61
2022/10/04 00:25:49;;;;;;;18.63;10.23;;;12.40;99.90;;;;;;5052486;28;20037;-61
2022/10/04 00:28:20;;;;;;;18.08;9.38;;;12.40;99.90;;;;;;5051281;28;20033;-61
2022/10/04 00:31:10;;;;;;;14.18;10.95;;;12.40;99.90;;;;;;5051881;28;20040;-61
2022/10/04 00:33:35;;;;;;;15.95;10.27;;;12.30;99.90;;;;;;5051535;28;20467;-61
2022/10/04 00:36:21;;;;;;;19.58;10.68;;;12.30;99.90;;;;;;5051630;28;20084;-61
2022/10/04 00:39:02;;;;;;;16.75;12.40;;;12.30;99.90;;;;;;5051224;28;20072;-61
2022/10/04 00:41:33;;;;;;;16.05;8.93;;;12.30;99.90;;;;;;5052563;28;20072;-61
2022/10/04 00:43:59;;;;;;;20.50;10.48;;;12.20;99.90;;;;;;5051641;28;20041;-61
2022/10/04 00:46:28;;;;;;;19.23;10.60;;;12.30;99.90;;;;;;5051726;28;20120;-61
2022/10/04 00:49:01;;;;;;;20.10;10.80;;;12.30;99.90;;;;;;5051187;28;20053;-61
2022/10/04 00:51:48;;;;;;;18.25;10.43;;;12.20;99.90;;;;;;5050535;28;20052;-61
2022/10/04 00:54:21;;;;;;;18.95;10.15;;;12.30;99.90;;;;;;5052333;28;20037;-61
2022/10/04 00:56:54;;;;;;;19.80;9.70;;;12.20;99.90;;;;;;5051928;28;20072;-61
2022/10/04 00:59:47;;;;;;;18.42;10.50;;;12.20;99.90;;;;;;5051003;28;20063;-61
2022/10/04 01:02:43;;;;;;;23.00;10.43;;;12.20;99.90;;;;;;5051981;28;20566;-61
2022/10/04 01:05:16;;;;;;;;;;;12.30;99.90;;;;;;5029144;28;20063;-61
2022/10/04 01:07:46;;;;;;;16.08;10.10;;;12.20;99.90;;;;;;5034650;28;19943;-61
2022/10/04 01:10:25;;;;;;;21.80;10.32;;;12.30;99.90;;;;;;5051323;28;20087;-61
2022/10/04 01:13:08;;;;;;;17.73;11.95;;;12.30;99.90;;;;;;5050024;28;20045;-61
2022/10/04 01:16:00;;;;;;;17.35;11.18;;;12.30;99.90;;;;;;5052049;28;20370;-61
2022/10/04 01:18:33;;;;;;;22.67;13.10;;;12.30;99.90;;;;;;5050215;28;20488;-61
2022/10/04 01:21:19;;;;;;;20.10;11.70;;;12.30;99.90;;;;;;5050545;28;20049;-61
2022/10/04 01:23:56;;;;;;;18.33;11.40;;;12.30;99.90;;;;;;5051964;28;20044;-61
2022/10/04 01:26:33;;;;;;;20.15;12.07;;;12.30;99.90;;;;;;5049915;28;20041;-61
2022/10/04 01:29:24;;;;;;;14.80;10.63;;;12.30;99.90;;;;;;5050741;28;20037;-61
2022/10/04 01:31:52;;;;;;;21.40;10.15;;;12.30;99.90;;;;;;5049696;28;20037;-61
2022/10/04 01:34:21;;;;;;;19.55;11.40;;;12.30;99.90;;;;;;5050354;28;20120;-61
2022/10/04 01:36:47;;;;;;;17.90;10.30;;;12.30;99.90;;;;;;5051683;28;20049;-61
2022/10/04 01:39:15;;;;;;;14.05;8.80;;;12.20;99.90;;;;;;5049775;28;20045;-61
2022/10/04 01:41:48;;;;;;;18.50;9.73;;;12.20;99.90;;;;;;5050773;28;20124;-62
2022/10/04 01:44:36;;;;;;;16.23;8.68;;;12.20;99.90;;;;;;5050420;28;20056;-61
2022/10/04 01:47:06;;;;;;;24.13;9.82;;;12.20;99.90;;;;;;5049782;28;20090;-61
2022/10/04 01:49:35;;;;;;;20.80;10.10;;;12.20;99.90;;;;;;5051490;28;20084;-61
2022/10/04 01:52:09;;;;;;;15.93;9.45;;;12.20;99.90;;;;;;5050468;28;20056;-61
2022/10/04 01:54:59;;;;;;;17.02;9.88;;;12.20;99.90;;;;;;5050861;28;20037;-61
2022/10/04 01:57:35;;;;;;;19.80;10.13;;;12.10;99.90;;;;;;5050913;28;20087;-61
2022/10/04 02:00:11;;;;;;;16.58;9.38;;;12.10;99.90;;;;;;5054923;28;20037;-61
2022/10/04 02:02:49;;;;;;;15.35;9.20;;;12.10;99.90;;;;;;5054460;28;20041;-61
2022/10/04 02:05:19;;;;;;;21.20;10.45;;;12.00;99.90;;;;;;5054098;28;20043;-61
2022/10/04 02:07:46;;;;;;;17.25;10.15;;;12.00;99.90;;;;;;5053373;28;20052;-61
2022/10/04 02:10:18;;;;;;;21.73;10.88;;;12.00;99.90;;;;;;5055010;28;20049;-61
2022/10/04 02:12:48;;;;;;;18.50;10.13;;;12.00;99.90;;;;;;5054472;28;20077;-61
2022/10/04 02:15:17;;;;;;;21.55;10.80;;;12.00;99.90;;;;;;5053207;28;20032;-61
2022/10/04 02:17:43;;;;;;;19.40;10.35;;;12.00;99.90;;;;;;5055208;28;20434;-61
2022/10/04 02:20:14;;;;;;;16.83;10.10;;;11.90;99.90;;;;;;5053978;28;20084;-61
2022/10/04 02:22:42;;;;;;;18.48;10.25;;;11.90;99.90;;;;;;5053453;28;20076;-61
2022/10/04 02:25:08;;;;;;;17.92;11.00;;;11.90;99.90;;;;;;5053905;28;20170;-61
2022/10/04 02:27:34;;;;;;;20.08;10.85;;;11.80;99.90;;;;;;5037343;28;20127;-61
2022/10/04 02:30:08;;;;;;;17.80;10.27;;;11.80;99.90;;;;;;5054091;28;20549;-61
2022/10/04 02:35:20;;;;;;;17.13;10.38;;;11.80;99.90;;;;;;5053910;28;20053;-61
2022/10/04 02:37:51;;;;;;;17.02;11.27;;;11.70;99.90;;;;;;5054858;28;20077;-61
2022/10/04 02:40:21;;;;;;;15.82;11.10;;;11.70;99.90;;;;;;5054887;28;20442;-61
2022/10/04 02:43:09;;;;;;;13.15;9.75;;;11.60;99.90;;;;;;5053817;28;20037;-62
2022/10/04 02:45:55;;;;;;;15.80;10.25;;;11.60;99.90;;;;;;5053834;28;20132;-61
2022/10/04 02:48:48;;;;;;;16.00;9.95;;;11.60;99.90;;;;;;5054584;28;20064;-61
2022/10/04 02:51:18;;;;;;;20.92;10.60;;;11.50;99.90;;;;;;5053789;28;20032;-61
2022/10/04 02:53:50;;;;;;;22.13;11.00;;;11.50;99.90;;;;;;5053468;28;20037;-61
2022/10/04 02:56:17;;;;;;;18.23;11.10;;;11.50;99.90;;;;;;5052597;28;20041;-61
2022/10/04 02:58:43;;;;;;;18.63;11.00;;;11.40;99.90;;;;;;5054379;28;20068;-61
2022/10/04 03:01:27;;;;;;;20.70;10.13;;;11.40;99.90;;;;;;5054495;28;20045;-61
2022/10/04 03:03:54;;;;;;;19.60;11.85;;;11.30;99.90;;;;;;5053519;28;20036;-61
2022/10/04 03:06:23;;;;;;;15.25;10.77;;;11.30;99.90;;;;;;5052905;28;20397;-61
2022/10/04 03:08:50;;;;;;;22.23;12.93;;;11.30;99.90;;;;;;5052752;28;20533;-61
2022/10/04 03:11:20;;;;;;;20.55;12.20;;;11.30;99.90;;;;;;5051847;28;20037;-60
2022/10/04 03:13:49;;;;;;;20.00;12.02;;;11.20;99.90;;;;;;5053954;28;20555;-61
2022/10/04 03:16:16;;;;;;;18.23;11.73;;;11.20;99.90;;;;;;5052716;28;20124;-61
2022/10/04 03:18:44;;;;;;;20.48;11.13;;;11.20;99.90;;;;;;5053419;28;20517;-61
2022/10/04 03:21:13;;;;;;;16.48;10.25;;;11.20;99.90;;;;;;5053108;28;20087;-61
2022/10/04 03:23:40;;;;;;;22.17;11.77;;;11.20;99.90;;;;;;5054345;28;20048;-61
2022/10/04 03:26:29;;;;;;;16.88;10.73;;;11.20;99.90;;;;;;5053083;28;20049;-61
2022/10/04 03:28:57;;;;;;;19.67;10.75;;;11.20;99.90;;;;;;5052864;28;20474;-61
2022/10/04 03:31:25;;;;;;;21.77;11.38;;;11.20;99.90;;;;;;5051786;28;20191;-61
2022/10/04 03:33:54;;;;;;;19.65;12.18;;;11.20;99.90;;;;;;5052489;28;20045;-61
2022/10/04 03:36:22;;;;;;;18.45;11.52;;;11.10;99.90;;;;;;5052229;28;20090;-61
2022/10/04 03:38:51;;;;;;;20.02;12.90;;;11.10;99.90;;;;;;5052850;28;20040;-61
2022/10/04 03:41:17;;;;;;;18.85;10.77;;;11.10;99.90;;;;;;5053597;28;20091;-61
2022/10/04 03:43:49;;;;;;;16.45;10.48;;;11.10;99.90;;;;;;5052456;28;20049;-60
2022/10/04 03:46:16;;;;;;;17.67;10.68;;;11.10;99.90;;;;;;5052296;28;20059;-61
2022/10/04 03:48:51;;;;;;;18.00;10.32;;;11.10;99.90;;;;;;5053770;28;20075;-61
2022/10/04 03:51:25;;;;;;;;;;;11.10;99.90;;;;;;5053895;28;20052;-61
2022/10/04 03:53:56;;;;;;;18.25;11.88;;;11.10;99.90;;;;;;5034895;28;20386;-61
2022/10/04 03:56:29;;;;;;;20.38;13.55;;;11.00;99.90;;;;;;5051930;28;20090;-61
2022/10/04 03:58:57;;;;;;;18.27;11.48;;;11.00;99.90;;;;;;5053288;28;20056;-61
2022/10/04 04:01:44;;;;;;;18.38;11.48;;;11.00;99.90;;;;;;5050941;28;20627;-60
2022/10/04 04:04:30;;;;;;;15.13;10.40;;;11.00;99.90;;;;;;5035485;28;20048;-61
2022/10/04 04:07:06;;;;;;;21.02;12.40;;;11.00;99.90;;;;;;5052050;28;20041;-61
2022/10/04 04:09:41;;;;;;;19.08;11.43;;;11.00;99.90;;;;;;5052007;28;20397;-61
2022/10/04 04:12:17;;;;;;;20.83;11.88;;;11.00;99.90;;;;;;5051851;28;20075;-61
2022/10/04 04:14:44;;;;;;;16.60;11.70;;;11.00;99.90;;;;;;5034437;28;20045;-61
2022/10/04 04:17:37;;;;;;;25.30;12.32;;;11.00;99.90;;;;;;5051672;28;20063;-61
2022/10/04 04:20:14;;;;;;;21.63;13.60;;;11.00;99.90;;;;;;5034220;28;20033;-61
2022/10/04 04:22:43;;;;;;;25.10;13.85;;;11.00;99.90;;;;;;5052356;28;20041;-61
2022/10/04 04:25:14;;;;;;;24.98;14.45;;;11.00;99.90;;;;;;5051280;28;20112;-61
2022/10/04 04:27:42;;;;;;;19.17;11.68;;;11.00;99.90;;;;;;5050826;28;20076;-61
2022/10/04 04:30:16;;;;;;;27.20;11.52;;;11.00;99.90;;;;;;5051222;28;20041;-60
2022/10/04 04:32:48;;;;;;;20.52;14.23;;;10.90;99.90;;;;;;5052868;28;20044;-60
2022/10/04 04:35:23;;;;;;;19.23;11.45;;;11.00;99.90;;;;;;5051876;28;20045;-61
2022/10/04 04:38:14;;;;;;;;;;;10.90;99.90;;;;;;5052809;28;20036;-60
2022/10/04 04:40:40;;;;;;;16.02;10.60;;;10.90;99.90;;;;;;5036616;28;19916;-61
2022/10/04 04:43:12;;;;;;;18.95;12.32;;;10.90;99.90;;;;;;5051546;28;20045;-60
2022/10/04 04:45:38;;;;;;;20.85;12.95;;;11.00;99.90;;;;;;5051255;28;20060;-61
2022/10/04 04:48:06;;;;;;;20.58;13.27;;;11.00;99.90;;;;;;5052418;28;20037;-61
2022/10/04 04:50:35;;;;;;;22.33;12.55;;;11.00;99.90;;;;;;5033596;28;20164;-60
2022/10/04 04:53:17;;;;;;;22.17;12.68;;;11.00;99.90;;;;;;5052368;28;20033;-61
2022/10/04 04:55:48;;;;;;;21.50;12.80;;;11.00;99.90;;;;;;5052727;28;20037;-61
2022/10/04 04:58:36;;;;;;;17.73;13.45;;;11.00;99.90;;;;;;5050827;28;20049;-61
2022/10/04 05:01:21;;;;;;;22.35;14.27;;;11.00;99.90;;;;;;5052063;28;20398;-61
2022/10/04 05:04:20;;;;;;;19.42;12.57;;;11.00;99.90;;;;;;5050377;28;20056;-61
2022/10/04 05:07:01;;;;;;;20.05;13.30;;;11.00;99.90;;;;;;5050375;28;20055;-61
2022/10/04 05:09:37;;;;;;;18.40;12.18;;;10.90;99.90;;;;;;5034420;28;20385;-61
2022/10/04 05:12:18;;;;;;;24.80;13.55;;;10.90;99.90;;;;;;5050957;28;20497;-61
2022/10/04 05:14:49;;;;;;;20.67;13.68;;;10.90;99.90;;;;;;5051259;28;20082;-61
2022/10/04 05:17:23;;;;;;;21.70;12.98;;;10.90;99.90;;;;;;5051182;28;20397;-61
2022/10/04 05:19:50;;;;;;;20.38;12.98;;;10.80;99.90;;;;;;5050884;28;20485;-61
2022/10/04 05:22:21;;;;;;;21.85;13.25;;;10.90;99.90;;;;;;5050655;28;20048;-61
2022/10/04 05:24:53;;;;;;;22.98;14.38;;;10.90;99.90;;;;;;5051138;28;20044;-61
2022/10/04 05:27:31;;;;;;;22.05;12.88;;;10.80;99.90;;;;;;5051719;28;20564;-61
2022/10/04 05:30:07;;;;;;;22.23;14.00;;;10.80;99.90;;;;;;5051733;28;20090;-61
2022/10/04 05:32:54;;;;;;;23.55;13.27;;;10.80;99.90;;;;;;5051915;28;20033;-61
2022/10/04 05:35:22;;;;;;;15.32;11.85;;;10.80;99.90;;;;;;5054760;28;20052;-61
2022/10/04 05:38:23;;;;;;;20.95;13.38;;;10.80;99.90;;;;;;5055964;28;20044;-61
2022/10/04 05:40:52;;;;;;;22.65;13.27;;;10.80;99.90;;;;;;5055725;28;20045;-61
2022/10/04 05:43:24;;;;;;;19.08;12.93;;;10.70;99.90;;;;;;5054531;28;20068;-61
2022/10/04 05:46:09;;;;;;;23.73;13.88;;;10.70;99.90;;;;;;5054514;28;20055;-61
2022/10/04 05:48:36;;;;;;;20.80;14.35;;;10.70;99.90;;;;;;5055810;28;20056;-61
2022/10/04 05:51:11;;;;;;;20.95;14.30;;;10.70;99.90;;;;;;5055615;28;20402;-61
2022/10/04 05:53:38;;;;;;;19.05;13.80;;;10.70;99.90;;;;;;5054147;28;20124;-61
2022/10/04 05:56:31;;;;;;;25.63;15.00;;;10.70;99.90;;;;;;5054353;28;20106;-61
2022/10/04 05:58:56;;;;;;;22.92;14.00;;;10.70;99.90;;;;;;5054314;28;20401;-61
2022/10/04 06:01:46;;;;;;;24.27;14.82;;;10.70;99.90;;;;;;5036709;28;20051;-61
2022/10/04 06:04:24;;;;;;;25.92;15.88;;;10.70;99.90;;;;;;5054105;28;20045;-61
2022/10/04 06:06:58;;;;;;;24.60;15.32;;;10.70;99.90;;;;;;5053349;28;20052;-61
2022/10/04 06:09:55;;;;;;;20.23;13.88;;;10.70;99.90;;;;;;5055484;28;20406;-61
2022/10/04 06:12:32;;;;;;;20.20;13.05;;;10.70;99.90;;;;;;5055426;28;20108;-61
2022/10/04 06:14:58;;;;;;;21.10;14.02;;;10.70;99.90;;;;;;5053107;28;20041;-61
2022/10/04 06:17:42;;;;;;;22.30;15.20;;;10.70;99.90;;;;;;5053859;28;20504;-61
2022/10/04 06:20:45;;;;;;;26.05;14.68;;;10.70;99.90;;;;;;5055002;28;20037;-61
2022/10/04 06:23:17;;;;;;;28.45;15.63;;;10.80;99.90;;;;;;5054014;28;20041;-60
2022/10/04 06:25:49;;;;;;;22.92;15.35;;;10.80;99.90;;;;;;5053826;28;20057;-61
2022/10/04 06:28:21;;;;;;;25.35;14.25;;;10.80;99.90;;;;;;5052993;28;20083;-61
2022/10/04 06:31:01;;;;;;;25.00;15.27;;;10.80;99.90;;;;;;5037239;28;20397;-61
2022/10/04 06:33:45;;;;;;;22.98;14.20;;;10.80;99.90;;;;;;5053711;28;20080;-61
2022/10/04 06:36:39;;;;;;;26.27;15.57;;;10.90;99.90;;;;;;5053983;28;20520;-61
2022/10/04 06:39:23;;;;;;;24.42;16.23;;;11.00;99.90;;;;;;5054544;28;20087;-61
2022/10/04 06:42:04;;;;;;;25.10;15.40;;;11.00;99.90;;;;;;5052739;28;20080;-61
2022/10/04 06:45:04;;;;;;;23.75;15.95;;;11.00;99.90;;;;;;5054187;28;20044;-62
2022/10/04 06:47:29;;;;;;;24.42;14.38;;;11.00;99.90;;;;;;5049367;28;20045;-61
2022/10/04 06:50:27;;;;;;;23.55;15.70;;;11.10;99.90;;;;;;5068679;28;20040;-61
2022/10/04 06:53:05;;;;;;;22.33;12.80;;;11.20;99.90;;;;;;5031695;28;20057;-61
2022/10/04 06:56:01;;;;;;;29.55;14.93;;;11.20;99.90;;;;;;5030007;28;20041;-61
2022/10/04 06:58:59;;;;;;;20.85;15.38;;;11.30;99.90;;;;;;5030436;28;20045;-61
2022/10/04 07:01:33;;;;;;;21.13;14.88;;;11.40;99.90;;;;;;5000522;28;20081;-61
2022/10/04 07:04:29;;;;;;;20.88;14.13;;;11.40;99.90;;;;;;5030633;28;20153;-61
2022/10/04 07:10:25;;;;;;;27.60;13.65;;;11.50;99.90;;;;;;5002222;28;20084;-61
2022/10/04 07:13:09;;;;;;;24.88;13.80;;;11.50;99.90;;;;;;5028421;28;20049;-61
2022/10/04 07:15:57;;;;;;;19.17;13.80;;;11.60;99.90;;;;;;5027708;28;20060;-61
2022/10/04 07:18:42;;;;;;;24.25;14.80;;;11.70;99.90;;;;;;5029599;28;20057;-61
2022/10/04 07:21:14;;;;;;;22.80;15.32;;;11.80;99.90;;;;;;5030567;28;20052;-61
2022/10/04 07:24:08;;;;;;;20.38;14.43;;;11.90;99.90;;;;;;5029389;28;20053;-61
2022/10/04 07:26:49;;;;;;;19.15;12.65;;;12.00;99.90;;;;;;5061947;28;20057;-61
2022/10/04 07:29:23;;;;;;;17.92;13.27;;;11.90;99.90;;;;;;5032202;28;20498;-61
2022/10/04 07:32:12;;;;;;;20.35;14.65;;;12.00;99.90;;;;;;5048395;28;20063;-61
2022/10/04 07:35:05;;;;;;;18.20;12.75;;;12.00;99.90;;;;;;5005525;28;20072;-61
2022/10/04 07:38:06;;;;;;;21.85;12.02;;;12.00;99.90;;;;;;5049057;28;20131;-61
2022/10/04 07:40:42;;;;;;;19.45;12.70;;;12.00;99.90;;;;;;5003838;28;20057;-61
2022/10/04 07:43:20;;;;;;;19.65;12.88;;;12.00;99.90;;;;;;5042873;28;20509;-61
2022/10/04 07:45:47;;;;;;;19.38;11.95;;;12.00;99.90;;;;;;5047779;28;20107;-61
2022/10/04 07:48:16;;;;;;;21.40;12.75;;;12.00;99.90;;;;;;5050534;28;20094;-61
2022/10/04 07:51:11;;;;;;;18.13;12.23;;;12.00;99.90;;;;;;5047909;28;20298;-61
2022/10/04 07:53:37;;;;;;;17.90;11.57;;;11.90;99.90;;;;;;5064435;28;20037;-61
2022/10/04 07:56:14;;;;;;;18.85;12.43;;;11.90;99.90;;;;;;5049444;28;20063;-61
2022/10/04 07:59:11;;;;;;;20.13;11.73;;;11.90;99.90;;;;;;5049039;28;20056;-61
2022/10/04 08:01:55;;;;;;;22.92;11.80;;;11.90;99.90;;;;;;5048879;28;20079;-61
2022/10/04 08:04:44;;;;;;;25.25;13.38;;;11.90;99.90;;;;;;5048459;28;20044;-61
2022/10/04 08:07:26;;;;;;;19.27;13.13;;;11.90;99.90;;;;;;5049158;28;20048;-61
2022/10/04 08:10:13;;;;;;;19.80;12.65;;;11.90;99.90;;;;;;5049205;28;20044;-61
2022/10/04 08:12:53;;;;;;;18.05;12.43;;;12.00;99.90;;;;;;5048227;28;20065;-61
2022/10/04 08:15:34;;;;;;;20.65;11.90;;;12.10;99.90;;;;;;5047872;28;20041;-61
2022/10/04 08:18:21;;;;;;;19.85;11.95;;;12.20;99.90;;;;;;5041511;28;20041;-61
2022/10/04 08:21:00;;;;;;;17.48;11.55;;;12.30;99.90;;;;;;5073887;28;20232;-61
2022/10/04 08:23:54;;;;;;;19.15;12.50;;;12.40;99.90;;;;;;5048143;28;20049;-61
2022/10/04 08:26:44;;;;;;;18.58;12.65;;;12.50;99.90;;;;;;5046370;28;20052;-61
2022/10/04 08:29:41;;;;;;;17.90;11.18;;;12.60;99.90;;;;;;5048263;28;20493;-61
2022/10/04 08:32:24;;;;;;;18.48;11.40;;;12.70;99.90;;;;;;5047909;28;20052;-61
2022/10/04 08:35:10;;;;;;;20.48;12.05;;;12.70;99.90;;;;;;5048123;28;20477;-61
2022/10/04 08:38:03;;;;;;;17.23;11.90;;;12.80;99.90;;;;;;5049695;28;20504;-61
2022/10/04 08:40:50;;;;;;;22.58;12.10;;;12.80;99.90;;;;;;5033104;28;20045;-61
2022/10/04 08:43:39;;;;;;;17.40;11.60;;;12.90;99.90;;;;;;5062735;28;20045;-61
2022/10/04 08:46:23;;;;;;;17.45;11.43;;;13.00;99.90;;;;;;5017302;28;20088;-61
2022/10/04 08:49:04;;;;;;;17.73;11.35;;;13.10;99.90;;;;;;5047560;28;20057;-61
2022/10/04 08:51:50;;;;;;;21.35;11.65;;;13.10;99.90;;;;;;5047206;28;20097;-61
2022/10/04 08:54:24;;;;;;;23.95;14.27;;;13.20;99.90;;;;;;5048862;28;20406;-62
2022/10/04 08:57:17;;;;;;;19.52;11.35;;;13.30;99.90;;;;;;5048848;28;20037;-61
2022/10/04 09:00:07;;;;;;;17.75;10.82;;;13.30;99.90;;;;;;5040709;28;20047;-62
2022/10/04 09:03:00;;;;;;;20.70;11.35;;;13.40;99.90;;;;;;5049756;28;20037;-62
2022/10/04 09:06:03;;;;;;;18.05;12.77;;;13.40;99.90;;;;;;5050613;28;20048;-60
2022/10/04 09:09:00;;;;;;;16.15;11.82;;;13.50;99.90;;;;;;5067275;28;20032;-60
2022/10/04 09:11:50;;;;;;;17.90;12.52;;;13.60;99.90;;;;;;5050717;28;20098;-60
2022/10/04 09:14:50;;;;;;;21.95;13.65;;;13.60;99.90;;;;;;5050839;28;20401;-60
2022/10/04 09:17:36;;;;;;;17.75;11.32;;;13.70;99.90;;;;;;5017785;28;20053;-60
2022/10/04 09:20:39;;;;;;;24.08;13.32;;;13.80;99.90;;;;;;5051785;28;20073;-61
2022/10/04 09:23:19;;;;;;;21.50;12.95;;;13.80;99.90;;;;;;5049793;28;20079;-60
2022/10/04 09:25:55;;;;;;;23.13;13.90;;;13.90;99.90;;;;;;5050482;28;20045;-60
2022/10/04 09:28:54;;;;;;;23.25;14.88;;;14.00;99.90;;;;;;5049896;28;20497;-61
2022/10/04 09:31:57;;;;;;;22.42;13.75;;;14.00;99.90;;;;;;5050718;28;20537;-60
2022/10/04 09:34:50;;;;;;;19.17;13.73;;;14.10;99.90;;;;;;5049614;28;20053;-60
2022/10/04 09:37:32;;;;;;;18.23;14.00;;;14.10;99.90;;;;;;5051249;28;20072;-59
2022/10/04 09:40:27;;;;;;;22.20;13.88;;;14.20;99.90;;;;;;5050515;28;20045;-60
2022/10/04 09:43:26;;;;;;;22.30;14.30;;;14.20;99.90;;;;;;5042039;28;20052;-60
2022/10/04 09:46:06;;;;;;;24.80;15.43;;;14.20;99.90;;;;;;5050730;28;20488;-60
2022/10/04 09:48:58;;;;;;;22.63;16.27;;;14.30;99.90;;;;;;5051653;28;20085;-61
2022/10/04 09:51:55;;;;;;;23.80;16.85;;;14.40;99.90;;;;;;5050836;28;20044;-60
2022/10/04 09:54:26;;;;;;;22.60;15.63;;;14.40;99.90;;;;;;5049730;28;20512;-60
2022/10/04 09:57:05;;;;;;;25.92;15.13;;;14.40;99.90;;;;;;5048424;28;20048;-60
2022/10/04 09:59:46;;;;;;;24.05;15.43;;;14.50;99.90;;;;;;5034730;28;20041;-60
2022/10/04 10:03:01;;;;;;;20.42;15.00;;;14.40;99.90;;;;;;5047588;28;20043;-61
2022/10/04 10:05:53;;;;;;;23.55;16.02;;;14.40;99.90;;;;;;5030580;28;20084;-60
2022/10/04 10:08:34;;;;;;;25.60;16.75;;;14.40;99.90;;;;;;5053677;28;20060;-60
2022/10/04 10:14:27;;;;;;;18.80;14.80;;;14.60;99.90;;;;;;5045255;28;20047;-60
2022/10/04 10:17:04;;;;;;;21.95;15.23;;;14.70;99.90;;;;;;5048460;28;20163;-60
2022/10/04 10:19:32;;;;;;;21.80;14.27;;;14.80;99.90;;;;;;5049220;28;20084;-61
2022/10/04 10:22:39;;;;;;;21.65;15.95;;;14.90;99.90;;;;;;5051466;28;20469;-60
2022/10/04 10:25:44;;;;;;;21.20;15.20;;;14.90;99.90;;;;;;5047520;28;20055;-60
2022/10/04 10:28:28;;;;;;;22.80;15.27;;;14.90;99.90;;;;;;5081243;28;20045;-60
2022/10/04 10:31:19;;;;;;;23.45;14.10;;;14.90;99.90;;;;;;5047636;28;20048;-60
2022/10/04 10:34:00;;;;;;;21.30;14.20;;;14.90;99.90;;;;;;5033249;28;20033;-61
2022/10/04 10:37:05;;;;;;;21.15;15.93;;;14.90;99.90;;;;;;5054277;28;20084;-60
2022/10/04 10:40:02;;;;;;;23.92;14.30;;;14.90;99.90;;;;;;5054597;28;20382;-61
2022/10/04 10:43:02;;;;;;;19.30;14.57;;;14.90;99.90;;;;;;5052699;28;20133;-60
2022/10/04 10:45:33;;;;;;;19.63;16.02;;;14.90;99.90;;;;;;5052174;28;20063;-60
2022/10/04 10:48:24;;;;;;;19.40;15.35;;;14.90;99.90;;;;;;5052610;28;20162;-60
2022/10/04 10:51:09;;;;;;;25.48;15.65;;;14.90;99.90;;;;;;5042050;28;20132;-60
2022/10/04 10:53:49;;;;;;;22.65;14.80;;;14.90;99.90;;;;;;5052727;28;20443;-60
2022/10/04 10:56:54;;;;;;;20.08;14.20;;;15.00;99.90;;;;;;5048155;28;20430;-63
2022/10/04 10:59:35;;;;;;;24.33;14.38;;;15.00;99.90;;;;;;5026579;28;20044;-60
2022/10/04 11:02:35;;;;;;;19.73;13.10;;;15.10;99.90;;;;;;5052591;28;20470;-60
2022/10/04 11:05:25;;;;;;;17.52;11.70;;;15.20;99.90;;;;;;5053032;28;20444;-60
2022/10/04 11:08:06;;;;;;;16.00;10.30;;;15.30;99.90;;;;;;5054237;28;20037;-60
2022/10/04 11:10:32;;;;;;;13.93;9.63;;;15.40;99.90;;;;;;5053489;28;20095;-60
2022/10/04 11:13:36;;;;;;;14.82;9.07;;;15.40;99.90;;;;;;5054170;28;20429;-60
2022/10/04 11:16:50;;;;;;;11.05;7.57;;;15.40;99.90;;;;;;5051939;28;20041;-61
2022/10/04 11:19:34;;;;;;;15.95;8.52;;;15.50;99.90;;;;;;5052932;28;20052;-60
2022/10/04 11:22:20;;;;;;;12.93;8.02;;;15.60;99.90;;;;;;5086484;28;20109;-61
2022/10/04 11:25:16;;;;;;;10.70;7.65;;;15.70;99.90;;;;;;5053261;28;20432;-60
2022/10/04 11:28:04;;;;;;;16.48;10.05;;;15.80;99.90;;;;;;5052998;28;20049;-60
2022/10/04 11:31:00;;;;;;;13.05;7.72;;;15.90;99.90;;;;;;5052732;28;20040;-60
2022/10/04 11:33:44;;;;;;;14.25;8.85;;;15.90;99.90;;;;;;5052624;28;20041;-60
2022/10/04 11:36:21;;;;;;;11.63;7.43;;;16.00;99.90;;;;;;5053936;28;20059;-60
2022/10/04 11:39:14;;;;;;;13.75;9.45;;;16.00;99.90;;;;;;5085218;28;20049;-60
2022/10/04 11:42:03;;;;;;;14.57;9.25;;;16.10;99.90;;;;;;5067150;28;20387;-60
2022/10/04 11:44:39;;;;;;;13.40;7.97;;;16.00;99.90;;;;;;5085253;28;20052;-60
2022/10/04 11:47:20;;;;;;;13.73;8.07;;;16.00;99.90;;;;;;5068585;28;20055;-63
2022/10/04 11:50:07;;;;;;;15.50;7.68;;;16.00;99.90;;;;;;5085820;28;20056;-63
2022/10/04 11:52:45;;;;;;;11.80;7.65;;;15.90;99.90;;;;;;5052545;28;20493;-63
2022/10/04 11:55:26;;;;;;;9.57;6.45;;;15.80;99.90;;;;;;5053459;28;20037;-64
2022/10/04 11:58:20;;;;;;;11.80;7.38;;;15.80;99.90;;;;;;5084779;28;20124;-64
2022/10/04 12:01:14;;;;;;;12.43;7.15;;;15.90;99.90;;;;;;5052322;28;20498;-62
2022/10/04 12:03:52;;;;;;;14.70;7.43;;;15.90;99.90;;;;;;5052421;28;20386;-62
2022/10/04 12:06:56;;;;;;;13.23;8.52;;;16.00;99.90;;;;;;5084479;28;20510;-62
2022/10/04 12:09:54;;;;;;;10.77;7.68;;;16.10;99.90;;;;;;5053171;28;20543;-62
2022/10/04 12:12:37;;;;;;;11.45;7.53;;;16.20;99.90;;;;;;5051201;28;20537;-62
2022/10/04 12:15:29;;;;;;;12.82;7.40;;;16.20;99.90;;;;;;5051783;28;20131;-62
2022/10/04 12:18:05;;;;;;;13.48;8.05;;;16.20;99.90;;;;;;5052988;28;20048;-62
2022/10/04 12:20:51;;;;;;;14.10;7.75;;;16.30;99.90;;;;;;5050690;28;20033;-62
2022/10/04 12:23:55;;;;;;;15.10;7.45;;;16.40;99.90;;;;;;5051565;28;20051;-62
2022/10/04 12:26:24;;;;;;;13.20;8.32;;;16.50;99.90;;;;;;5051809;28;20501;-62
2022/10/04 12:29:16;;;;;;;14.60;8.05;;;16.40;99.90;;;;;;5051578;28;20045;-62
2022/10/04 12:31:49;;;;;;;13.43;7.90;;;16.40;99.90;;;;;;5051712;28;20056;-62
2022/10/04 12:34:26;;;;;;;11.48;7.25;;;16.40;99.90;;;;;;5050539;28;20048;-62
2022/10/04 12:37:24;;;;;;;9.98;6.38;;;16.40;99.90;;;;;;5052718;28;20124;-62
2022/10/04 12:40:08;;;;;;;10.63;7.15;;;16.40;99.90;;;;;;5051350;28;20041;-62
2022/10/04 12:42:34;;;;;;;15.60;7.20;;;16.30;99.90;;;;;;5051994;28;20047;-62
2022/10/04 12:45:02;;;;;;;14.40;9.05;;;16.30;99.90;;;;;;5052290;28;20041;-63
2022/10/04 12:47:50;;;;;;;11.98;7.32;;;16.30;99.90;;;;;;5083963;28;20490;-62
2022/10/04 12:50:25;;;;;;;12.02;7.10;;;16.30;99.90;;;;;;5084899;28;20390;-62
2022/10/04 12:53:10;;;;;;;9.50;6.07;;;16.20;99.90;;;;;;5068036;28;20486;-62
2022/10/04 12:56:21;;;;;;;10.32;6.47;;;16.30;99.90;;;;;;5047272;28;20045;-62
2022/10/04 12:59:14;;;;;;;11.57;6.75;;;16.50;99.90;;;;;;5050966;28;20102;-62
2022/10/04 13:02:03;;;;;;;9.90;6.47;;;16.60;99.90;;;;;;5051682;28;20120;-62
2022/10/04 13:05:13;;;;;;;9.35;5.93;;;16.70;99.90;;;;;;5049982;28;20055;-60
2022/10/04 13:08:02;;;;;;;10.70;4.72;;;16.70;99.90;;;;;;5079901;28;20053;-61
2022/10/04 13:10:59;;;;;;;9.98;5.38;;;16.70;99.90;;;;;;5049520;28;20087;-62
2022/10/04 13:14:10;;;;;;;11.80;5.13;;;16.80;99.90;;;;;;5050290;28;20033;-62
2022/10/04 13:16:47;;;;;;;8.88;4.88;;;16.80;99.90;;;;;;5036542;28;20033;-61
2022/10/04 13:19:13;;;;;;;6.60;4.20;;;16.80;99.90;;;;;;5051088;28;20040;-60
2022/10/04 13:22:05;;;;;;;10.55;6.38;;;16.80;99.90;;;;;;5052343;28;20041;-61
2022/10/04 13:25:01;;;;;;;9.18;6.28;;;16.80;99.90;;;;;;5046594;28;20049;-61
2022/10/04 13:27:47;;;;;;;11.40;6.03;;;16.90;99.90;;;;;;5050474;28;20496;-61
2022/10/04 13:30:23;;;;;;;7.97;5.40;;;16.90;99.90;;;;;;5051029;28;20151;-61
2022/10/04 13:32:55;;;;;;;10.55;6.68;;;16.90;99.90;;;;;;5049696;28;20134;-61
2022/10/04 13:35:44;;;;;;;10.48;5.85;;;16.80;99.90;;;;;;5050953;28;20091;-61
2022/10/04 13:38:29;;;;;;;10.73;6.18;;;16.80;99.90;;;;;;5057219;28;20049;-62
2022/10/04 13:41:13;;;;;;;8.73;5.32;;;16.80;99.90;;;;;;5034308;28;20043;-62
2022/10/04 13:44:16;;;;;;;13.25;6.53;;;16.80;99.90;;;;;;5047650;28;20045;-63
2022/10/04 13:46:57;;;;;;;8.68;5.75;;;16.80;99.90;;;;;;5045132;28;20272;-65
2022/10/04 13:49:39;;;;;;;10.30;5.93;;;16.80;99.90;;;;;;5047764;28;20052;-64